sensor_id;sensor_type;location;lat;lon;timestamp;P1;durP1;ratioP1;P2;durP2;ratioP2
16115;SDS011;8162;47.104;15.432;2022-07-21T00:01:19;3.07;;;2.80;;
16115;SDS011;8162;47.104;15.432;2022-07-21T00:03:45;4.23;;;2.20;;
16115;SDS011;8162;47.104;15.432;2022-07-21T00:06:11;2.73;;;2.33;;
16115;SDS011;8162;47.104;15.432;2022-07-21T00:08:36;3.17;;;2.87;;
16115;SDS011;8162;47.104;15.432;2022-07-21T00:11:02;5.90;;;2.73;;
16115;SDS011;8162;47.104;15.432;2022-07-21T00:13:28;3.33;;;2.77;;
16115;SDS011;8162;47.104;15.432;2022-07-21T00:15:54;3.30;;;2.73;;
16115;SDS011;8162;47.104;15.432;2022-07-21T00:18:20;3.43;;;3.13;;
16115;SDS011;8162;47.104;15.432;2022-07-21T00:20:46;4.63;;;2.60;;
16115;SDS011;8162;47.104;15.432;2022-07-21T00:23:12;3.20;;;2.90;;
16115;SDS011;8162;47.104;15.432;2022-07-21T00:25:37;3.73;;;3.13;;
16115;SDS011;8162;47.104;15.432;2022-07-21T00:28:03;3.13;;;2.60;;
16115;SDS011;8162;47.104;15.432;2022-07-21T00:30:30;3.00;;;2.70;;
16115;SDS011;8162;47.104;15.432;2022-07-21T00:32:57;2.87;;;2.27;;
16115;SDS011;8162;47.104;15.432;2022-07-21T00:35:22;4.50;;;3.33;;
16115;SDS011;8162;47.104;15.432;2022-07-21T00:37:48;3.10;;;2.80;;
16115;SDS011;8162;47.104;15.432;2022-07-21T00:40:14;3.33;;;2.90;;
16115;SDS011;8162;47.104;15.432;2022-07-21T00:42:41;4.30;;;2.60;;
16115;SDS011;8162;47.104;15.432;2022-07-21T00:45:07;3.67;;;2.87;;
16115;SDS011;8162;47.104;15.432;2022-07-21T00:47:34;2.90;;;2.63;;
16115;SDS011;8162;47.104;15.432;2022-07-21T00:50:02;3.53;;;2.90;;
16115;SDS011;8162;47.104;15.432;2022-07-21T00:52:30;2.70;;;2.50;;
16115;SDS011;8162;47.104;15.432;2022-07-21T00:54:56;3.20;;;2.90;;
16115;SDS011;8162;47.104;15.432;2022-07-21T00:57:21;4.03;;;2.87;;
16115;SDS011;8162;47.104;15.432;2022-07-21T00:59:47;5.60;;;2.63;;
16115;SDS011;8162;47.104;15.432;2022-07-21T01:02:13;3.17;;;2.87;;
16115;SDS011;8162;47.104;15.432;2022-07-21T01:04:39;4.47;;;3.40;;
16115;SDS011;8162;47.104;15.432;2022-07-21T01:07:05;3.17;;;2.90;;
16115;SDS011;8162;47.104;15.432;2022-07-21T01:09:32;3.33;;;2.67;;
16115;SDS011;8162;47.104;15.432;2022-07-21T01:11:58;3.20;;;2.90;;
16115;SDS011;8162;47.104;15.432;2022-07-21T01:14:25;3.10;;;2.80;;
16115;SDS011;8162;47.104;15.432;2022-07-21T01:16:51;3.37;;;3.07;;
16115;SDS011;8162;47.104;15.432;2022-07-21T01:19:17;2.97;;;2.70;;
16115;SDS011;8162;47.104;15.432;2022-07-21T01:21:44;3.33;;;3.03;;
16115;SDS011;8162;47.104;15.432;2022-07-21T01:24:11;5.27;;;3.10;;
16115;SDS011;8162;47.104;15.432;2022-07-21T01:26:41;5.87;;;3.43;;
16115;SDS011;8162;47.104;15.432;2022-07-21T01:29:12;4.23;;;3.30;;
16115;SDS011;8162;47.104;15.432;2022-07-21T01:31:39;3.10;;;2.90;;
16115;SDS011;8162;47.104;15.432;2022-07-21T01:34:06;3.10;;;2.80;;
16115;SDS011;8162;47.104;15.432;2022-07-21T01:36:33;3.50;;;3.20;;
16115;SDS011;8162;47.104;15.432;2022-07-21T01:38:59;3.50;;;3.20;;
16115;SDS011;8162;47.104;15.432;2022-07-21T01:41:44;3.07;;;2.87;;
16115;SDS011;8162;47.104;15.432;2022-07-21T01:44:11;3.20;;;2.90;;
16115;SDS011;8162;47.104;15.432;2022-07-21T01:46:39;3.60;;;3.17;;
16115;SDS011;8162;47.104;15.432;2022-07-21T01:49:07;5.27;;;3.20;;
16115;SDS011;8162;47.104;15.432;2022-07-21T01:51:33;3.67;;;3.10;;
16115;SDS011;8162;47.104;15.432;2022-07-21T01:53:59;3.37;;;2.60;;
16115;SDS011;8162;47.104;15.432;2022-07-21T01:56:25;3.87;;;3.30;;
16115;SDS011;8162;47.104;15.432;2022-07-21T01:58:52;3.43;;;3.13;;
16115;SDS011;8162;47.104;15.432;2022-07-21T02:01:20;3.07;;;2.77;;
16115;SDS011;8162;47.104;15.432;2022-07-21T02:03:47;4.73;;;3.30;;
16115;SDS011;8162;47.104;15.432;2022-07-21T02:06:13;3.93;;;3.10;;
16115;SDS011;8162;47.104;15.432;2022-07-21T02:08:39;3.77;;;3.37;;
16115;SDS011;8162;47.104;15.432;2022-07-21T02:11:07;4.67;;;3.20;;
16115;SDS011;8162;47.104;15.432;2022-07-21T02:13:34;3.43;;;3.13;;
16115;SDS011;8162;47.104;15.432;2022-07-21T02:16:00;5.00;;;3.20;;
16115;SDS011;8162;47.104;15.432;2022-07-21T02:18:26;4.23;;;3.07;;
16115;SDS011;8162;47.104;15.432;2022-07-21T02:20:52;4.90;;;3.30;;
16115;SDS011;8162;47.104;15.432;2022-07-21T02:23:18;3.37;;;3.07;;
16115;SDS011;8162;47.104;15.432;2022-07-21T02:25:44;3.30;;;3.00;;
16115;SDS011;8162;47.104;15.432;2022-07-21T02:28:10;4.73;;;3.50;;
16115;SDS011;8162;47.104;15.432;2022-07-21T02:30:36;3.53;;;2.90;;
16115;SDS011;8162;47.104;15.432;2022-07-21T02:33:02;4.27;;;2.90;;
16115;SDS011;8162;47.104;15.432;2022-07-21T02:35:28;5.57;;;3.30;;
16115;SDS011;8162;47.104;15.432;2022-07-21T02:37:54;3.57;;;3.13;;
16115;SDS011;8162;47.104;15.432;2022-07-21T02:40:20;5.13;;;3.50;;
16115;SDS011;8162;47.104;15.432;2022-07-21T02:42:46;3.30;;;3.00;;
16115;SDS011;8162;47.104;15.432;2022-07-21T02:45:12;4.80;;;3.43;;
16115;SDS011;8162;47.104;15.432;2022-07-21T02:47:50;3.53;;;3.23;;
16115;SDS011;8162;47.104;15.432;2022-07-21T02:50:24;4.67;;;3.63;;
16115;SDS011;8162;47.104;15.432;2022-07-21T02:52:58;4.03;;;3.63;;
16115;SDS011;8162;47.104;15.432;2022-07-21T02:55:25;3.90;;;3.43;;
16115;SDS011;8162;47.104;15.432;2022-07-21T03:00:38;3.50;;;3.20;;
16115;SDS011;8162;47.104;15.432;2022-07-21T03:03:06;4.23;;;3.10;;
16115;SDS011;8162;47.104;15.432;2022-07-21T03:05:33;4.13;;;3.30;;
16115;SDS011;8162;47.104;15.432;2022-07-21T03:07:59;4.00;;;3.30;;
16115;SDS011;8162;47.104;15.432;2022-07-21T03:10:24;3.20;;;2.90;;
16115;SDS011;8162;47.104;15.432;2022-07-21T03:12:50;3.47;;;3.17;;
16115;SDS011;8162;47.104;15.432;2022-07-21T03:15:16;4.47;;;3.13;;
16115;SDS011;8162;47.104;15.432;2022-07-21T03:17:42;4.80;;;3.90;;
16115;SDS011;8162;47.104;15.432;2022-07-21T03:20:07;6.53;;;3.30;;
16115;SDS011;8162;47.104;15.432;2022-07-21T03:22:34;5.30;;;3.17;;
16115;SDS011;8162;47.104;15.432;2022-07-21T03:24:59;4.97;;;3.30;;
16115;SDS011;8162;47.104;15.432;2022-07-21T03:27:25;3.57;;;3.27;;
16115;SDS011;8162;47.104;15.432;2022-07-21T03:29:51;4.40;;;3.77;;
16115;SDS011;8162;47.104;15.432;2022-07-21T03:32:16;3.67;;;3.37;;
16115;SDS011;8162;47.104;15.432;2022-07-21T03:34:42;4.13;;;3.40;;
16115;SDS011;8162;47.104;15.432;2022-07-21T03:37:10;3.57;;;3.07;;
16115;SDS011;8162;47.104;15.432;2022-07-21T03:39:36;4.00;;;3.60;;
16115;SDS011;8162;47.104;15.432;2022-07-21T03:42:02;3.70;;;3.33;;
16115;SDS011;8162;47.104;15.432;2022-07-21T03:44:27;3.60;;;3.30;;
16115;SDS011;8162;47.104;15.432;2022-07-21T03:46:53;3.90;;;3.60;;
16115;SDS011;8162;47.104;15.432;2022-07-21T03:49:19;4.53;;;2.97;;
16115;SDS011;8162;47.104;15.432;2022-07-21T03:51:44;6.87;;;3.80;;
16115;SDS011;8162;47.104;15.432;2022-07-21T03:54:10;3.97;;;3.60;;
16115;SDS011;8162;47.104;15.432;2022-07-21T03:56:36;6.47;;;4.17;;
16115;SDS011;8162;47.104;15.432;2022-07-21T03:59:01;3.80;;;3.47;;
16115;SDS011;8162;47.104;15.432;2022-07-21T04:01:27;4.43;;;3.33;;
16115;SDS011;8162;47.104;15.432;2022-07-21T04:03:53;4.57;;;3.40;;
16115;SDS011;8162;47.104;15.432;2022-07-21T04:06:18;4.10;;;3.70;;
16115;SDS011;8162;47.104;15.432;2022-07-21T04:08:44;5.13;;;3.53;;
16115;SDS011;8162;47.104;15.432;2022-07-21T04:11:10;4.53;;;3.67;;
16115;SDS011;8162;47.104;15.432;2022-07-21T04:13:35;6.10;;;3.63;;
16115;SDS011;8162;47.104;15.432;2022-07-21T04:16:01;6.33;;;3.37;;
16115;SDS011;8162;47.104;15.432;2022-07-21T04:18:27;4.90;;;3.50;;
16115;SDS011;8162;47.104;15.432;2022-07-21T04:20:52;3.80;;;3.50;;
16115;SDS011;8162;47.104;15.432;2022-07-21T04:23:18;4.47;;;3.80;;
16115;SDS011;8162;47.104;15.432;2022-07-21T04:25:43;3.83;;;3.50;;
16115;SDS011;8162;47.104;15.432;2022-07-21T04:28:09;4.97;;;3.73;;
16115;SDS011;8162;47.104;15.432;2022-07-21T04:30:36;4.07;;;3.60;;
16115;SDS011;8162;47.104;15.432;2022-07-21T04:33:02;4.33;;;3.83;;
16115;SDS011;8162;47.104;15.432;2022-07-21T04:35:28;5.77;;;4.00;;
16115;SDS011;8162;47.104;15.432;2022-07-21T04:37:54;10.40;;;4.17;;
16115;SDS011;8162;47.104;15.432;2022-07-21T04:40:19;5.00;;;4.13;;
16115;SDS011;8162;47.104;15.432;2022-07-21T04:42:45;8.37;;;4.13;;
16115;SDS011;8162;47.104;15.432;2022-07-21T04:45:12;6.23;;;4.07;;
16115;SDS011;8162;47.104;15.432;2022-07-21T04:47:46;4.23;;;3.83;;
16115;SDS011;8162;47.104;15.432;2022-07-21T04:50:14;5.40;;;3.43;;
16115;SDS011;8162;47.104;15.432;2022-07-21T04:52:40;4.10;;;3.70;;
16115;SDS011;8162;47.104;15.432;2022-07-21T04:55:06;4.27;;;3.87;;
16115;SDS011;8162;47.104;15.432;2022-07-21T04:57:40;4.60;;;4.07;;
16115;SDS011;8162;47.104;15.432;2022-07-21T05:00:09;4.97;;;4.20;;
16115;SDS011;8162;47.104;15.432;2022-07-21T05:02:37;3.93;;;3.57;;
16115;SDS011;8162;47.104;15.432;2022-07-21T05:05:03;5.40;;;3.87;;
16115;SDS011;8162;47.104;15.432;2022-07-21T05:07:30;4.20;;;3.87;;
16115;SDS011;8162;47.104;15.432;2022-07-21T05:09:56;4.33;;;3.43;;
16115;SDS011;8162;47.104;15.432;2022-07-21T05:12:24;3.83;;;3.40;;
16115;SDS011;8162;47.104;15.432;2022-07-21T05:14:52;4.87;;;3.73;;
16115;SDS011;8162;47.104;15.432;2022-07-21T05:17:18;3.93;;;3.63;;
16115;SDS011;8162;47.104;15.432;2022-07-21T05:19:43;4.37;;;3.90;;
16115;SDS011;8162;47.104;15.432;2022-07-21T05:22:13;5.40;;;4.13;;
16115;SDS011;8162;47.104;15.432;2022-07-21T05:24:39;4.33;;;3.60;;
16115;SDS011;8162;47.104;15.432;2022-07-21T05:27:05;4.50;;;4.07;;
16115;SDS011;8162;47.104;15.432;2022-07-21T05:29:30;4.63;;;3.60;;
16115;SDS011;8162;47.104;15.432;2022-07-21T05:31:56;4.17;;;3.77;;
16115;SDS011;8162;47.104;15.432;2022-07-21T05:34:21;4.53;;;3.63;;
16115;SDS011;8162;47.104;15.432;2022-07-21T05:36:47;3.87;;;3.40;;
16115;SDS011;8162;47.104;15.432;2022-07-21T05:39:13;4.77;;;4.13;;
16115;SDS011;8162;47.104;15.432;2022-07-21T05:41:39;4.20;;;3.73;;
16115;SDS011;8162;47.104;15.432;2022-07-21T05:44:04;4.50;;;3.37;;
16115;SDS011;8162;47.104;15.432;2022-07-21T05:46:30;4.40;;;4.00;;
16115;SDS011;8162;47.104;15.432;2022-07-21T05:48:56;4.67;;;3.80;;
16115;SDS011;8162;47.104;15.432;2022-07-21T05:51:21;4.47;;;4.07;;
16115;SDS011;8162;47.104;15.432;2022-07-21T05:53:47;4.63;;;4.13;;
16115;SDS011;8162;47.104;15.432;2022-07-21T05:56:13;6.33;;;4.33;;
16115;SDS011;8162;47.104;15.432;2022-07-21T05:58:38;6.60;;;6.00;;
16115;SDS011;8162;47.104;15.432;2022-07-21T06:01:04;6.43;;;5.83;;
16115;SDS011;8162;47.104;15.432;2022-07-21T06:03:40;5.73;;;4.20;;
16115;SDS011;8162;47.104;15.432;2022-07-21T06:06:07;6.23;;;4.03;;
16115;SDS011;8162;47.104;15.432;2022-07-21T06:08:34;3.83;;;3.53;;
16115;SDS011;8162;47.104;15.432;2022-07-21T06:11:01;5.47;;;4.30;;
16115;SDS011;8162;47.104;15.432;2022-07-21T06:13:27;5.33;;;4.33;;
16115;SDS011;8162;47.104;15.432;2022-07-21T06:15:52;5.43;;;3.83;;
16115;SDS011;8162;47.104;15.432;2022-07-21T06:18:18;6.27;;;3.97;;
16115;SDS011;8162;47.104;15.432;2022-07-21T06:20:43;5.57;;;4.20;;
16115;SDS011;8162;47.104;15.432;2022-07-21T06:23:09;4.83;;;3.90;;
16115;SDS011;8162;47.104;15.432;2022-07-21T06:25:35;4.97;;;4.10;;
16115;SDS011;8162;47.104;15.432;2022-07-21T06:28:00;7.07;;;4.50;;
16115;SDS011;8162;47.104;15.432;2022-07-21T06:30:26;5.20;;;4.27;;
16115;SDS011;8162;47.104;15.432;2022-07-21T06:32:52;7.47;;;3.90;;
16115;SDS011;8162;47.104;15.432;2022-07-21T06:35:17;5.20;;;3.93;;
16115;SDS011;8162;47.104;15.432;2022-07-21T06:37:44;4.07;;;3.67;;
16115;SDS011;8162;47.104;15.432;2022-07-21T06:40:10;6.23;;;4.17;;
16115;SDS011;8162;47.104;15.432;2022-07-21T06:42:36;5.67;;;3.63;;
16115;SDS011;8162;47.104;15.432;2022-07-21T06:45:02;4.50;;;4.10;;
16115;SDS011;8162;47.104;15.432;2022-07-21T06:47:29;6.20;;;3.97;;
16115;SDS011;8162;47.104;15.432;2022-07-21T06:49:54;8.07;;;4.20;;
16115;SDS011;8162;47.104;15.432;2022-07-21T06:52:20;4.60;;;3.93;;
16115;SDS011;8162;47.104;15.432;2022-07-21T06:54:46;5.00;;;4.47;;
16115;SDS011;8162;47.104;15.432;2022-07-21T06:57:11;7.23;;;3.90;;
16115;SDS011;8162;47.104;15.432;2022-07-21T06:59:38;8.83;;;3.77;;
16115;SDS011;8162;47.104;15.432;2022-07-21T07:02:04;6.80;;;4.30;;
16115;SDS011;8162;47.104;15.432;2022-07-21T07:04:30;4.53;;;4.10;;
16115;SDS011;8162;47.104;15.432;2022-07-21T07:06:56;4.90;;;4.07;;
16115;SDS011;8162;47.104;15.432;2022-07-21T07:09:22;5.30;;;3.90;;
16115;SDS011;8162;47.104;15.432;2022-07-21T07:11:48;5.40;;;3.93;;
16115;SDS011;8162;47.104;15.432;2022-07-21T07:14:17;4.87;;;4.37;;
16115;SDS011;8162;47.104;15.432;2022-07-21T07:16:42;4.30;;;3.90;;
16115;SDS011;8162;47.104;15.432;2022-07-21T07:19:08;4.60;;;4.17;;
16115;SDS011;8162;47.104;15.432;2022-07-21T07:21:34;6.53;;;4.43;;
16115;SDS011;8162;47.104;15.432;2022-07-21T07:23:59;8.77;;;4.27;;
16115;SDS011;8162;47.104;15.432;2022-07-21T07:26:27;9.40;;;4.67;;
16115;SDS011;8162;47.104;15.432;2022-07-21T07:28:53;6.97;;;4.23;;
16115;SDS011;8162;47.104;15.432;2022-07-21T07:31:18;6.53;;;3.93;;
16115;SDS011;8162;47.104;15.432;2022-07-21T07:33:44;7.67;;;4.60;;
16115;SDS011;8162;47.104;15.432;2022-07-21T07:36:10;12.63;;;4.30;;
16115;SDS011;8162;47.104;15.432;2022-07-21T07:38:37;5.10;;;4.60;;
16115;SDS011;8162;47.104;15.432;2022-07-21T07:41:04;4.97;;;4.13;;
16115;SDS011;8162;47.104;15.432;2022-07-21T07:43:30;5.47;;;4.00;;
16115;SDS011;8162;47.104;15.432;2022-07-21T07:45:56;5.03;;;4.50;;
16115;SDS011;8162;47.104;15.432;2022-07-21T07:48:21;6.60;;;4.17;;
16115;SDS011;8162;47.104;15.432;2022-07-21T07:50:47;7.10;;;4.30;;
16115;SDS011;8162;47.104;15.432;2022-07-21T07:53:13;6.37;;;4.93;;
16115;SDS011;8162;47.104;15.432;2022-07-21T07:55:38;6.23;;;4.53;;
16115;SDS011;8162;47.104;15.432;2022-07-21T07:58:04;7.13;;;4.53;;
16115;SDS011;8162;47.104;15.432;2022-07-21T08:00:29;7.30;;;4.03;;
16115;SDS011;8162;47.104;15.432;2022-07-21T08:02:55;5.07;;;3.80;;
16115;SDS011;8162;47.104;15.432;2022-07-21T08:05:21;6.73;;;4.00;;
16115;SDS011;8162;47.104;15.432;2022-07-21T08:07:47;5.67;;;3.83;;
16115;SDS011;8162;47.104;15.432;2022-07-21T08:10:12;4.53;;;3.63;;
16115;SDS011;8162;47.104;15.432;2022-07-21T08:12:39;5.17;;;4.10;;
16115;SDS011;8162;47.104;15.432;2022-07-21T08:15:05;4.80;;;3.67;;
16115;SDS011;8162;47.104;15.432;2022-07-21T08:17:32;4.80;;;4.23;;
16115;SDS011;8162;47.104;15.432;2022-07-21T08:19:58;10.47;;;3.80;;
16115;SDS011;8162;47.104;15.432;2022-07-21T08:22:24;4.43;;;4.03;;
16115;SDS011;8162;47.104;15.432;2022-07-21T08:24:49;6.90;;;3.50;;
16115;SDS011;8162;47.104;15.432;2022-07-21T08:27:15;4.23;;;3.53;;
16115;SDS011;8162;47.104;15.432;2022-07-21T08:29:41;4.43;;;3.00;;
16115;SDS011;8162;47.104;15.432;2022-07-21T08:32:07;3.40;;;3.10;;
16115;SDS011;8162;47.104;15.432;2022-07-21T08:34:32;3.67;;;3.10;;
16115;SDS011;8162;47.104;15.432;2022-07-21T08:36:58;5.40;;;3.33;;
16115;SDS011;8162;47.104;15.432;2022-07-21T08:39:23;3.53;;;2.70;;
16115;SDS011;8162;47.104;15.432;2022-07-21T08:41:50;4.57;;;3.17;;
16115;SDS011;8162;47.104;15.432;2022-07-21T08:44:17;3.30;;;3.00;;
16115;SDS011;8162;47.104;15.432;2022-07-21T08:46:45;5.27;;;2.80;;
16115;SDS011;8162;47.104;15.432;2022-07-21T08:49:14;7.23;;;2.70;;
16115;SDS011;8162;47.104;15.432;2022-07-21T08:51:44;3.70;;;2.97;;
16115;SDS011;8162;47.104;15.432;2022-07-21T08:54:09;5.27;;;3.50;;
16115;SDS011;8162;47.104;15.432;2022-07-21T08:56:35;4.97;;;3.17;;
16115;SDS011;8162;47.104;15.432;2022-07-21T08:59:01;4.67;;;2.97;;
16115;SDS011;8162;47.104;15.432;2022-07-21T09:01:27;3.87;;;3.57;;
16115;SDS011;8162;47.104;15.432;2022-07-21T09:03:53;3.70;;;3.27;;
16115;SDS011;8162;47.104;15.432;2022-07-21T09:06:18;3.80;;;2.97;;
16115;SDS011;8162;47.104;15.432;2022-07-21T09:08:48;4.60;;;3.10;;
16115;SDS011;8162;47.104;15.432;2022-07-21T09:11:20;4.10;;;3.43;;
16115;SDS011;8162;47.104;15.432;2022-07-21T09:13:50;6.50;;;3.20;;
16115;SDS011;8162;47.104;15.432;2022-07-21T09:19:03;4.13;;;2.93;;
16115;SDS011;8162;47.104;15.432;2022-07-21T09:21:32;4.37;;;2.90;;
16115;SDS011;8162;47.104;15.432;2022-07-21T09:24:17;3.97;;;3.03;;
16115;SDS011;8162;47.104;15.432;2022-07-21T09:34:38;6.00;;;3.30;;
16115;SDS011;8162;47.104;15.432;2022-07-21T09:37:04;6.17;;;3.70;;
16115;SDS011;8162;47.104;15.432;2022-07-21T09:42:22;7.03;;;4.30;;
16115;SDS011;8162;47.104;15.432;2022-07-21T09:44:59;5.17;;;3.30;;
16115;SDS011;8162;47.104;15.432;2022-07-21T09:47:27;10.63;;;3.60;;
16115;SDS011;8162;47.104;15.432;2022-07-21T09:49:55;5.77;;;3.00;;
16115;SDS011;8162;47.104;15.432;2022-07-21T09:54:58;4.87;;;3.20;;
16115;SDS011;8162;47.104;15.432;2022-07-21T09:57:26;3.40;;;3.00;;
16115;SDS011;8162;47.104;15.432;2022-07-21T09:59:52;4.33;;;3.10;;
16115;SDS011;8162;47.104;15.432;2022-07-21T10:02:29;2.90;;;2.60;;
16115;SDS011;8162;47.104;15.432;2022-07-21T10:07:27;5.17;;;2.80;;
16115;SDS011;8162;47.104;15.432;2022-07-21T10:09:54;4.20;;;2.90;;
16115;SDS011;8162;47.104;15.432;2022-07-21T10:12:20;4.53;;;3.20;;
16115;SDS011;8162;47.104;15.432;2022-07-21T10:14:47;3.40;;;2.87;;
16115;SDS011;8162;47.104;15.432;2022-07-21T10:17:13;3.30;;;2.70;;
16115;SDS011;8162;47.104;15.432;2022-07-21T10:19:49;2.90;;;2.43;;
16115;SDS011;8162;47.104;15.432;2022-07-21T10:22:27;3.50;;;2.80;;
16115;SDS011;8162;47.104;15.432;2022-07-21T10:25:15;3.40;;;2.80;;
16115;SDS011;8162;47.104;15.432;2022-07-21T10:28:24;4.07;;;2.40;;
16115;SDS011;8162;47.104;15.432;2022-07-21T10:30:38;4.43;;;2.97;;
16115;SDS011;8162;47.104;15.432;2022-07-21T10:33:08;3.67;;;3.27;;
16115;SDS011;8162;47.104;15.432;2022-07-21T10:35:37;3.77;;;3.03;;
16115;SDS011;8162;47.104;15.432;2022-07-21T10:38:06;2.77;;;2.57;;
16115;SDS011;8162;47.104;15.432;2022-07-21T10:40:49;5.73;;;2.80;;
16115;SDS011;8162;47.104;15.432;2022-07-21T10:45:41;4.77;;;2.93;;
16115;SDS011;8162;47.104;15.432;2022-07-21T10:51:13;5.17;;;3.40;;
16115;SDS011;8162;47.104;15.432;2022-07-21T10:53:40;2.90;;;2.70;;
16115;SDS011;8162;47.104;15.432;2022-07-21T10:56:08;3.20;;;2.90;;
16115;SDS011;8162;47.104;15.432;2022-07-21T10:58:49;6.60;;;3.10;;
16115;SDS011;8162;47.104;15.432;2022-07-21T11:01:19;3.60;;;3.30;;
16115;SDS011;8162;47.104;15.432;2022-07-21T11:04:06;5.13;;;3.03;;
16115;SDS011;8162;47.104;15.432;2022-07-21T11:06:40;3.17;;;2.87;;
16115;SDS011;8162;47.104;15.432;2022-07-21T11:09:07;3.53;;;3.23;;
16115;SDS011;8162;47.104;15.432;2022-07-21T11:11:34;3.80;;;3.50;;
16115;SDS011;8162;47.104;15.432;2022-07-21T11:14:07;4.70;;;3.13;;
16115;SDS011;8162;47.104;15.432;2022-07-21T11:19:41;3.77;;;3.33;;
16115;SDS011;8162;47.104;15.432;2022-07-21T11:24:47;3.23;;;2.93;;
16115;SDS011;8162;47.104;15.432;2022-07-21T11:27:17;3.20;;;2.90;;
16115;SDS011;8162;47.104;15.432;2022-07-21T11:29:47;4.10;;;3.03;;
16115;SDS011;8162;47.104;15.432;2022-07-21T11:32:14;5.37;;;3.20;;
16115;SDS011;8162;47.104;15.432;2022-07-21T11:34:45;4.83;;;3.10;;
16115;SDS011;8162;47.104;15.432;2022-07-21T11:37:29;3.70;;;2.90;;
16115;SDS011;8162;47.104;15.432;2022-07-21T11:39:55;3.10;;;2.80;;
16115;SDS011;8162;47.104;15.432;2022-07-21T11:42:21;2.80;;;2.53;;
16115;SDS011;8162;47.104;15.432;2022-07-21T11:44:47;4.53;;;2.83;;
16115;SDS011;8162;47.104;15.432;2022-07-21T11:47:15;4.27;;;2.90;;
16115;SDS011;8162;47.104;15.432;2022-07-21T11:49:41;3.13;;;2.53;;
16115;SDS011;8162;47.104;15.432;2022-07-21T11:52:12;4.03;;;3.00;;
16115;SDS011;8162;47.104;15.432;2022-07-21T11:54:46;4.67;;;2.77;;
16115;SDS011;8162;47.104;15.432;2022-07-21T11:57:13;3.53;;;2.60;;
16115;SDS011;8162;47.104;15.432;2022-07-21T11:59:41;3.10;;;2.80;;
16115;SDS011;8162;47.104;15.432;2022-07-21T12:04:42;3.10;;;2.60;;
16115;SDS011;8162;47.104;15.432;2022-07-21T12:07:26;3.67;;;2.70;;
16115;SDS011;8162;47.104;15.432;2022-07-21T12:09:56;4.13;;;2.50;;
16115;SDS011;8162;47.104;15.432;2022-07-21T12:12:42;3.67;;;2.80;;
16115;SDS011;8162;47.104;15.432;2022-07-21T12:17:39;2.60;;;2.40;;
16115;SDS011;8162;47.104;15.432;2022-07-21T12:20:07;3.57;;;2.73;;
16115;SDS011;8162;47.104;15.432;2022-07-21T12:22:38;3.63;;;2.60;;
16115;SDS011;8162;47.104;15.432;2022-07-21T12:25:09;3.20;;;2.67;;
16115;SDS011;8162;47.104;15.432;2022-07-21T12:27:36;7.00;;;3.13;;
16115;SDS011;8162;47.104;15.432;2022-07-21T12:30:06;3.07;;;2.77;;
16115;SDS011;8162;47.104;15.432;2022-07-21T12:32:41;3.47;;;2.47;;
16115;SDS011;8162;47.104;15.432;2022-07-21T12:35:16;2.83;;;2.63;;
16115;SDS011;8162;47.104;15.432;2022-07-21T12:37:53;2.70;;;2.50;;
16115;SDS011;8162;47.104;15.432;2022-07-21T12:40:31;5.30;;;2.70;;
16115;SDS011;8162;47.104;15.432;2022-07-21T12:43:05;3.43;;;2.50;;
16115;SDS011;8162;47.104;15.432;2022-07-21T12:45:43;5.67;;;3.07;;
16115;SDS011;8162;47.104;15.432;2022-07-21T12:48:20;4.87;;;2.57;;
16115;SDS011;8162;47.104;15.432;2022-07-21T12:53:25;3.40;;;2.33;;
16115;SDS011;8162;47.104;15.432;2022-07-21T12:55:51;3.70;;;2.50;;
16115;SDS011;8162;47.104;15.432;2022-07-21T12:58:17;3.63;;;2.70;;
16115;SDS011;8162;47.104;15.432;2022-07-21T13:00:42;3.10;;;2.80;;
16115;SDS011;8162;47.104;15.432;2022-07-21T13:03:08;4.10;;;2.50;;
16115;SDS011;8162;47.104;15.432;2022-07-21T13:05:34;2.83;;;2.57;;
16115;SDS011;8162;47.104;15.432;2022-07-21T13:07:59;5.43;;;2.90;;
16115;SDS011;8162;47.104;15.432;2022-07-21T13:10:25;3.83;;;2.20;;
16115;SDS011;8162;47.104;15.432;2022-07-21T13:12:51;2.67;;;2.47;;
16115;SDS011;8162;47.104;15.432;2022-07-21T13:15:16;2.50;;;2.30;;
16115;SDS011;8162;47.104;15.432;2022-07-21T13:17:42;3.47;;;2.33;;
16115;SDS011;8162;47.104;15.432;2022-07-21T13:20:09;3.23;;;2.50;;
16115;SDS011;8162;47.104;15.432;2022-07-21T13:22:35;4.50;;;2.53;;
16115;SDS011;8162;47.104;15.432;2022-07-21T13:25:02;2.73;;;2.53;;
16115;SDS011;8162;47.104;15.432;2022-07-21T13:27:29;5.00;;;2.40;;
16115;SDS011;8162;47.104;15.432;2022-07-21T13:29:54;2.67;;;2.43;;
16115;SDS011;8162;47.104;15.432;2022-07-21T13:32:20;6.67;;;2.23;;
16115;SDS011;8162;47.104;15.432;2022-07-21T13:34:46;5.20;;;2.63;;
16115;SDS011;8162;47.104;15.432;2022-07-21T13:37:12;2.57;;;2.37;;
16115;SDS011;8162;47.104;15.432;2022-07-21T13:39:38;4.17;;;2.53;;
16115;SDS011;8162;47.104;15.432;2022-07-21T13:42:04;2.47;;;2.27;;
16115;SDS011;8162;47.104;15.432;2022-07-21T13:44:31;4.63;;;2.50;;
16115;SDS011;8162;47.104;15.432;2022-07-21T13:46:57;4.47;;;2.77;;
16115;SDS011;8162;47.104;15.432;2022-07-21T13:49:23;2.97;;;2.70;;
16115;SDS011;8162;47.104;15.432;2022-07-21T13:51:49;3.80;;;2.40;;
16115;SDS011;8162;47.104;15.432;2022-07-21T13:54:14;3.70;;;2.30;;
16115;SDS011;8162;47.104;15.432;2022-07-21T13:56:40;4.00;;;2.50;;
16115;SDS011;8162;47.104;15.432;2022-07-21T13:59:08;4.97;;;2.80;;
16115;SDS011;8162;47.104;15.432;2022-07-21T14:01:34;2.80;;;2.60;;
16115;SDS011;8162;47.104;15.432;2022-07-21T14:03:59;5.23;;;2.50;;
16115;SDS011;8162;47.104;15.432;2022-07-21T14:06:25;3.63;;;2.30;;
16115;SDS011;8162;47.104;15.432;2022-07-21T14:08:51;4.23;;;2.37;;
16115;SDS011;8162;47.104;15.432;2022-07-21T14:11:16;6.10;;;2.70;;
16115;SDS011;8162;47.104;15.432;2022-07-21T14:13:42;5.07;;;2.60;;
16115;SDS011;8162;47.104;15.432;2022-07-21T14:16:09;2.67;;;2.20;;
16115;SDS011;8162;47.104;15.432;2022-07-21T14:18:34;2.80;;;2.43;;
16115;SDS011;8162;47.104;15.432;2022-07-21T14:21:01;3.70;;;2.70;;
16115;SDS011;8162;47.104;15.432;2022-07-21T14:23:26;5.03;;;2.23;;
16115;SDS011;8162;47.104;15.432;2022-07-21T14:25:53;4.83;;;2.43;;
16115;SDS011;8162;47.104;15.432;2022-07-21T14:28:19;2.30;;;2.10;;
16115;SDS011;8162;47.104;15.432;2022-07-21T14:30:45;3.13;;;2.83;;
16115;SDS011;8162;47.104;15.432;2022-07-21T14:33:11;2.97;;;2.40;;
16115;SDS011;8162;47.104;15.432;2022-07-21T14:35:36;3.13;;;2.83;;
16115;SDS011;8162;47.104;15.432;2022-07-21T14:38:02;2.93;;;2.60;;
16115;SDS011;8162;47.104;15.432;2022-07-21T14:40:28;3.10;;;2.37;;
16115;SDS011;8162;47.104;15.432;2022-07-21T14:42:54;3.20;;;2.57;;
16115;SDS011;8162;47.104;15.432;2022-07-21T14:45:21;4.40;;;2.70;;
16115;SDS011;8162;47.104;15.432;2022-07-21T14:47:47;2.67;;;2.47;;
16115;SDS011;8162;47.104;15.432;2022-07-21T14:50:14;7.00;;;2.50;;
16115;SDS011;8162;47.104;15.432;2022-07-21T14:52:41;2.60;;;2.40;;
16115;SDS011;8162;47.104;15.432;2022-07-21T14:55:07;3.30;;;2.43;;
16115;SDS011;8162;47.104;15.432;2022-07-21T14:57:34;3.63;;;2.80;;
16115;SDS011;8162;47.104;15.432;2022-07-21T15:00:00;4.07;;;2.40;;
16115;SDS011;8162;47.104;15.432;2022-07-21T15:02:28;3.23;;;2.47;;
16115;SDS011;8162;47.104;15.432;2022-07-21T15:04:53;2.53;;;2.33;;
16115;SDS011;8162;47.104;15.432;2022-07-21T15:07:19;2.60;;;2.37;;
16115;SDS011;8162;47.104;15.432;2022-07-21T15:09:45;2.50;;;2.30;;
16115;SDS011;8162;47.104;15.432;2022-07-21T15:12:10;3.53;;;2.10;;
16115;SDS011;8162;47.104;15.432;2022-07-21T15:14:36;3.63;;;2.30;;
16115;SDS011;8162;47.104;15.432;2022-07-21T15:17:03;3.40;;;2.23;;
16115;SDS011;8162;47.104;15.432;2022-07-21T15:19:29;2.60;;;2.37;;
16115;SDS011;8162;47.104;15.432;2022-07-21T15:21:55;3.13;;;2.20;;
16115;SDS011;8162;47.104;15.432;2022-07-21T15:24:21;3.30;;;2.63;;
16115;SDS011;8162;47.104;15.432;2022-07-21T15:26:47;3.10;;;2.40;;
16115;SDS011;8162;47.104;15.432;2022-07-21T15:29:13;2.53;;;2.33;;